sensor_id;sensor_type;location;lat;lon;timestamp;P1;durP1;ratioP1;P2;durP2;ratioP2
3767;SDS011;1899;49.966;7.106;2023-11-18T00:01:32;13.83;;;9.57;;
3767;SDS011;1899;49.966;7.106;2023-11-18T00:04:00;14.30;;;9.17;;
3767;SDS011;1899;49.966;7.106;2023-11-18T00:06:25;13.33;;;9.63;;
3767;SDS011;1899;49.966;7.106;2023-11-18T00:08:51;16.90;;;9.43;;
3767;SDS011;1899;49.966;7.106;2023-11-18T00:11:16;16.20;;;9.40;;
3767;SDS011;1899;49.966;7.106;2023-11-18T00:13:41;11.47;;;8.23;;
3767;SDS011;1899;49.966;7.106;2023-11-18T00:16:09;13.00;;;8.70;;
3767;SDS011;1899;49.966;7.106;2023-11-18T00:18:41;12.67;;;9.10;;
3767;SDS011;1899;49.966;7.106;2023-11-18T00:21:06;15.37;;;9.67;;
3767;SDS011;1899;49.966;7.106;2023-11-18T00:23:32;13.30;;;9.13;;
3767;SDS011;1899;49.966;7.106;2023-11-18T00:25:57;17.13;;;9.70;;
3767;SDS011;1899;49.966;7.106;2023-11-18T00:28:22;17.03;;;9.60;;
3767;SDS011;1899;49.966;7.106;2023-11-18T00:30:48;13.93;;;9.60;;
3767;SDS011;1899;49.966;7.106;2023-11-18T00:33:13;13.53;;;9.10;;
3767;SDS011;1899;49.966;7.106;2023-11-18T00:35:38;14.87;;;9.47;;
3767;SDS011;1899;49.966;7.106;2023-11-18T00:38:03;14.13;;;8.90;;
3767;SDS011;1899;49.966;7.106;2023-11-18T00:40:29;13.77;;;10.60;;
3767;SDS011;1899;49.966;7.106;2023-11-18T00:42:55;13.63;;;9.73;;
3767;SDS011;1899;49.966;7.106;2023-11-18T00:45:20;16.10;;;9.63;;
3767;SDS011;1899;49.966;7.106;2023-11-18T00:47:46;14.83;;;9.63;;
3767;SDS011;1899;49.966;7.106;2023-11-18T00:50:11;14.07;;;9.53;;
3767;SDS011;1899;49.966;7.106;2023-11-18T00:52:36;12.00;;;8.70;;
3767;SDS011;1899;49.966;7.106;2023-11-18T00:55:06;12.30;;;8.70;;
3767;SDS011;1899;49.966;7.106;2023-11-18T00:57:32;17.03;;;9.80;;
3767;SDS011;1899;49.966;7.106;2023-11-18T00:59:57;11.90;;;8.40;;
3767;SDS011;1899;49.966;7.106;2023-11-18T01:02:23;11.23;;;8.23;;
3767;SDS011;1899;49.966;7.106;2023-11-18T01:04:48;14.73;;;9.23;;
3767;SDS011;1899;49.966;7.106;2023-11-18T01:07:14;15.13;;;9.03;;
3767;SDS011;1899;49.966;7.106;2023-11-18T01:09:39;14.50;;;8.27;;
3767;SDS011;1899;49.966;7.106;2023-11-18T01:12:05;12.70;;;8.90;;
3767;SDS011;1899;49.966;7.106;2023-11-18T01:14:33;16.10;;;8.87;;
3767;SDS011;1899;49.966;7.106;2023-11-18T01:16:59;13.70;;;8.77;;
3767;SDS011;1899;49.966;7.106;2023-11-18T01:19:24;18.27;;;10.30;;
3767;SDS011;1899;49.966;7.106;2023-11-18T01:21:50;12.40;;;8.43;;
3767;SDS011;1899;49.966;7.106;2023-11-18T01:24:18;11.77;;;8.27;;
3767;SDS011;1899;49.966;7.106;2023-11-18T01:26:43;17.57;;;9.10;;
3767;SDS011;1899;49.966;7.106;2023-11-18T01:29:10;14.53;;;9.40;;
3767;SDS011;1899;49.966;7.106;2023-11-18T01:31:35;12.67;;;8.73;;
3767;SDS011;1899;49.966;7.106;2023-11-18T01:34:00;13.40;;;8.47;;
3767;SDS011;1899;49.966;7.106;2023-11-18T01:36:26;14.43;;;9.37;;
3767;SDS011;1899;49.966;7.106;2023-11-18T01:38:51;13.67;;;9.00;;
3767;SDS011;1899;49.966;7.106;2023-11-18T01:41:16;11.30;;;8.00;;
3767;SDS011;1899;49.966;7.106;2023-11-18T01:43:44;14.90;;;10.00;;
3767;SDS011;1899;49.966;7.106;2023-11-18T01:46:11;17.77;;;9.40;;
3767;SDS011;1899;49.966;7.106;2023-11-18T01:48:38;13.43;;;9.13;;
3767;SDS011;1899;49.966;7.106;2023-11-18T01:51:04;14.80;;;9.40;;
3767;SDS011;1899;49.966;7.106;2023-11-18T01:53:31;13.23;;;7.93;;
3767;SDS011;1899;49.966;7.106;2023-11-18T01:55:57;15.53;;;8.60;;
3767;SDS011;1899;49.966;7.106;2023-11-18T01:58:24;15.03;;;9.23;;
3767;SDS011;1899;49.966;7.106;2023-11-18T02:00:50;11.30;;;8.70;;
3767;SDS011;1899;49.966;7.106;2023-11-18T02:03:18;13.50;;;8.10;;
3767;SDS011;1899;49.966;7.106;2023-11-18T02:05:45;14.90;;;10.13;;
3767;SDS011;1899;49.966;7.106;2023-11-18T02:08:10;13.40;;;9.53;;
3767;SDS011;1899;49.966;7.106;2023-11-18T02:11:00;14.77;;;9.33;;
3767;SDS011;1899;49.966;7.106;2023-11-18T02:13:24;14.73;;;8.90;;
3767;SDS011;1899;49.966;7.106;2023-11-18T02:15:58;12.20;;;8.97;;
3767;SDS011;1899;49.966;7.106;2023-11-18T02:18:27;13.87;;;9.77;;
3767;SDS011;1899;49.966;7.106;2023-11-18T02:20:57;14.00;;;10.00;;
3767;SDS011;1899;49.966;7.106;2023-11-18T02:23:23;18.67;;;10.70;;
3767;SDS011;1899;49.966;7.106;2023-11-18T02:25:49;11.60;;;8.80;;
3767;SDS011;1899;49.966;7.106;2023-11-18T02:28:14;12.60;;;8.93;;
3767;SDS011;1899;49.966;7.106;2023-11-18T02:30:40;13.77;;;7.90;;
3767;SDS011;1899;49.966;7.106;2023-11-18T02:33:18;13.57;;;8.20;;
3767;SDS011;1899;49.966;7.106;2023-11-18T02:38:17;15.70;;;9.33;;
3767;SDS011;1899;49.966;7.106;2023-11-18T02:40:43;13.80;;;8.73;;
3767;SDS011;1899;49.966;7.106;2023-11-18T02:43:09;12.90;;;8.23;;
3767;SDS011;1899;49.966;7.106;2023-11-18T02:45:35;14.13;;;9.33;;
3767;SDS011;1899;49.966;7.106;2023-11-18T02:48:01;15.37;;;10.27;;
3767;SDS011;1899;49.966;7.106;2023-11-18T02:50:27;17.30;;;9.63;;
3767;SDS011;1899;49.966;7.106;2023-11-18T02:52:55;21.13;;;12.43;;
3767;SDS011;1899;49.966;7.106;2023-11-18T02:55:20;12.90;;;8.90;;
3767;SDS011;1899;49.966;7.106;2023-11-18T02:57:47;13.17;;;8.87;;
3767;SDS011;1899;49.966;7.106;2023-11-18T03:00:12;20.50;;;10.50;;
3767;SDS011;1899;49.966;7.106;2023-11-18T03:02:46;18.67;;;11.87;;
3767;SDS011;1899;49.966;7.106;2023-11-18T03:05:13;14.00;;;8.53;;
3767;SDS011;1899;49.966;7.106;2023-11-18T03:07:38;14.63;;;9.10;;
3767;SDS011;1899;49.966;7.106;2023-11-18T03:10:04;17.97;;;9.57;;
3767;SDS011;1899;49.966;7.106;2023-11-18T03:12:36;14.40;;;8.83;;
3767;SDS011;1899;49.966;7.106;2023-11-18T03:15:01;12.20;;;7.80;;
3767;SDS011;1899;49.966;7.106;2023-11-18T03:17:26;14.27;;;9.20;;
3767;SDS011;1899;49.966;7.106;2023-11-18T03:19:52;13.47;;;8.40;;
3767;SDS011;1899;49.966;7.106;2023-11-18T03:22:18;13.70;;;9.00;;
3767;SDS011;1899;49.966;7.106;2023-11-18T03:24:43;14.00;;;7.60;;
3767;SDS011;1899;49.966;7.106;2023-11-18T03:27:08;12.83;;;8.97;;
3767;SDS011;1899;49.966;7.106;2023-11-18T03:29:34;13.30;;;8.30;;
3767;SDS011;1899;49.966;7.106;2023-11-18T03:31:59;13.17;;;8.80;;
3767;SDS011;1899;49.966;7.106;2023-11-18T03:34:24;10.90;;;7.50;;
3767;SDS011;1899;49.966;7.106;2023-11-18T03:36:50;10.93;;;7.23;;
3767;SDS011;1899;49.966;7.106;2023-11-18T03:39:16;13.30;;;8.40;;
3767;SDS011;1899;49.966;7.106;2023-11-18T03:41:41;9.60;;;6.87;;
3767;SDS011;1899;49.966;7.106;2023-11-18T03:44:09;14.53;;;7.50;;
3767;SDS011;1899;49.966;7.106;2023-11-18T03:46:34;15.33;;;7.33;;
3767;SDS011;1899;49.966;7.106;2023-11-18T03:49:00;10.10;;;6.90;;
3767;SDS011;1899;49.966;7.106;2023-11-18T03:51:25;12.30;;;7.70;;
3767;SDS011;1899;49.966;7.106;2023-11-18T03:53:51;10.83;;;6.93;;
3767;SDS011;1899;49.966;7.106;2023-11-18T03:56:16;12.37;;;6.87;;
3767;SDS011;1899;49.966;7.106;2023-11-18T03:58:43;12.17;;;6.70;;
3767;SDS011;1899;49.966;7.106;2023-11-18T04:01:08;11.23;;;6.03;;
3767;SDS011;1899;49.966;7.106;2023-11-18T04:03:36;9.90;;;5.83;;
3767;SDS011;1899;49.966;7.106;2023-11-18T04:06:01;10.53;;;5.50;;
3767;SDS011;1899;49.966;7.106;2023-11-18T04:08:28;11.93;;;6.70;;
3767;SDS011;1899;49.966;7.106;2023-11-18T04:10:53;13.00;;;5.33;;
3767;SDS011;1899;49.966;7.106;2023-11-18T04:13:19;10.23;;;5.10;;
3767;SDS011;1899;49.966;7.106;2023-11-18T04:15:44;8.93;;;5.10;;
3767;SDS011;1899;49.966;7.106;2023-11-18T04:18:10;8.50;;;5.03;;
3767;SDS011;1899;49.966;7.106;2023-11-18T04:20:35;10.83;;;6.17;;
3767;SDS011;1899;49.966;7.106;2023-11-18T04:23:01;12.93;;;7.33;;
3767;SDS011;1899;49.966;7.106;2023-11-18T04:25:27;11.87;;;6.20;;
3767;SDS011;1899;49.966;7.106;2023-11-18T04:27:52;11.83;;;6.20;;
3767;SDS011;1899;49.966;7.106;2023-11-18T04:30:18;12.30;;;6.73;;
3767;SDS011;1899;49.966;7.106;2023-11-18T04:32:43;11.07;;;6.30;;
3767;SDS011;1899;49.966;7.106;2023-11-18T04:35:08;14.97;;;6.07;;
3767;SDS011;1899;49.966;7.106;2023-11-18T04:37:34;9.40;;;5.70;;
3767;SDS011;1899;49.966;7.106;2023-11-18T04:40:00;14.50;;;7.20;;
3767;SDS011;1899;49.966;7.106;2023-11-18T04:42:25;9.13;;;5.67;;
3767;SDS011;1899;49.966;7.106;2023-11-18T04:44:50;9.63;;;6.50;;
3767;SDS011;1899;49.966;7.106;2023-11-18T04:47:15;10.00;;;5.90;;
3767;SDS011;1899;49.966;7.106;2023-11-18T04:49:43;14.10;;;6.80;;
3767;SDS011;1899;49.966;7.106;2023-11-18T04:52:08;8.53;;;6.03;;
3767;SDS011;1899;49.966;7.106;2023-11-18T04:54:34;11.70;;;6.47;;
3767;SDS011;1899;49.966;7.106;2023-11-18T04:56:59;13.30;;;7.07;;
3767;SDS011;1899;49.966;7.106;2023-11-18T04:59:24;13.60;;;7.10;;
3767;SDS011;1899;49.966;7.106;2023-11-18T05:01:49;12.87;;;7.00;;
3767;SDS011;1899;49.966;7.106;2023-11-18T05:04:17;14.33;;;7.33;;
3767;SDS011;1899;49.966;7.106;2023-11-18T05:06:43;9.90;;;6.23;;
3767;SDS011;1899;49.966;7.106;2023-11-18T05:09:08;12.27;;;7.77;;
3767;SDS011;1899;49.966;7.106;2023-11-18T05:11:33;10.50;;;6.20;;
3767;SDS011;1899;49.966;7.106;2023-11-18T05:13:59;12.73;;;7.00;;
3767;SDS011;1899;49.966;7.106;2023-11-18T05:16:25;9.40;;;6.33;;
3767;SDS011;1899;49.966;7.106;2023-11-18T05:18:50;10.43;;;6.10;;
3767;SDS011;1899;49.966;7.106;2023-11-18T05:21:16;9.50;;;6.40;;
3767;SDS011;1899;49.966;7.106;2023-11-18T05:23:41;10.47;;;5.90;;
3767;SDS011;1899;49.966;7.106;2023-11-18T05:26:06;9.37;;;6.20;;
3767;SDS011;1899;49.966;7.106;2023-11-18T05:28:32;8.40;;;5.80;;
3767;SDS011;1899;49.966;7.106;2023-11-18T05:30:57;11.23;;;6.63;;
3767;SDS011;1899;49.966;7.106;2023-11-18T05:33:29;10.67;;;5.63;;
3767;SDS011;1899;49.966;7.106;2023-11-18T05:35:55;12.70;;;6.60;;
3767;SDS011;1899;49.966;7.106;2023-11-18T05:38:20;9.93;;;6.77;;
3767;SDS011;1899;49.966;7.106;2023-11-18T05:40:51;9.93;;;5.83;;
3767;SDS011;1899;49.966;7.106;2023-11-18T05:43:24;10.87;;;5.73;;
3767;SDS011;1899;49.966;7.106;2023-11-18T05:45:51;10.97;;;6.40;;
3767;SDS011;1899;49.966;7.106;2023-11-18T05:48:35;8.87;;;5.80;;
3767;SDS011;1899;49.966;7.106;2023-11-18T05:51:00;10.17;;;6.20;;
3767;SDS011;1899;49.966;7.106;2023-11-18T05:53:25;10.40;;;6.33;;
3767;SDS011;1899;49.966;7.106;2023-11-18T05:55:50;10.03;;;6.70;;
3767;SDS011;1899;49.966;7.106;2023-11-18T05:58:16;8.30;;;5.80;;
3767;SDS011;1899;49.966;7.106;2023-11-18T06:00:41;10.80;;;6.10;;
3767;SDS011;1899;49.966;7.106;2023-11-18T06:03:06;8.70;;;5.47;;
3767;SDS011;1899;49.966;7.106;2023-11-18T06:05:31;10.27;;;6.03;;
3767;SDS011;1899;49.966;7.106;2023-11-18T06:07:59;8.80;;;5.63;;
3767;SDS011;1899;49.966;7.106;2023-11-18T06:10:25;8.17;;;5.90;;
3767;SDS011;1899;49.966;7.106;2023-11-18T06:12:50;8.33;;;5.50;;
3767;SDS011;1899;49.966;7.106;2023-11-18T06:15:16;10.27;;;5.63;;
3767;SDS011;1899;49.966;7.106;2023-11-18T06:17:44;9.30;;;5.23;;
3767;SDS011;1899;49.966;7.106;2023-11-18T06:20:09;9.13;;;5.87;;
3767;SDS011;1899;49.966;7.106;2023-11-18T06:22:35;8.63;;;5.30;;
3767;SDS011;1899;49.966;7.106;2023-11-18T06:25:01;8.83;;;6.00;;
3767;SDS011;1899;49.966;7.106;2023-11-18T06:27:27;15.17;;;6.73;;
3767;SDS011;1899;49.966;7.106;2023-11-18T06:29:52;12.77;;;6.77;;
3767;SDS011;1899;49.966;7.106;2023-11-18T06:32:19;9.45;;;6.00;;
3767;SDS011;1899;49.966;7.106;2023-11-18T06:34:45;10.90;;;6.50;;
3767;SDS011;1899;49.966;7.106;2023-11-18T06:37:10;11.07;;;6.60;;
3767;SDS011;1899;49.966;7.106;2023-11-18T06:39:35;11.17;;;6.33;;
3767;SDS011;1899;49.966;7.106;2023-11-18T06:42:05;10.17;;;5.80;;
3767;SDS011;1899;49.966;7.106;2023-11-18T06:44:36;9.50;;;6.57;;
3767;SDS011;1899;49.966;7.106;2023-11-18T06:47:01;11.90;;;6.47;;
3767;SDS011;1899;49.966;7.106;2023-11-18T06:49:27;11.73;;;5.33;;
3767;SDS011;1899;49.966;7.106;2023-11-18T06:51:54;8.33;;;5.07;;
3767;SDS011;1899;49.966;7.106;2023-11-18T06:54:20;12.80;;;6.00;;
3767;SDS011;1899;49.966;7.106;2023-11-18T06:56:45;8.70;;;5.10;;
3767;SDS011;1899;49.966;7.106;2023-11-18T06:59:11;7.33;;;5.30;;
3767;SDS011;1899;49.966;7.106;2023-11-18T07:01:40;8.83;;;4.80;;
3767;SDS011;1899;49.966;7.106;2023-11-18T07:04:08;9.60;;;4.97;;
3767;SDS011;1899;49.966;7.106;2023-11-18T07:06:34;7.60;;;4.97;;
3767;SDS011;1899;49.966;7.106;2023-11-18T07:09:03;7.57;;;5.60;;
3767;SDS011;1899;49.966;7.106;2023-11-18T07:11:33;10.23;;;5.70;;
3767;SDS011;1899;49.966;7.106;2023-11-18T07:13:58;8.90;;;5.60;;
3767;SDS011;1899;49.966;7.106;2023-11-18T07:16:24;7.67;;;5.17;;
3767;SDS011;1899;49.966;7.106;2023-11-18T07:18:49;8.40;;;5.73;;
3767;SDS011;1899;49.966;7.106;2023-11-18T07:21:15;7.10;;;5.33;;
3767;SDS011;1899;49.966;7.106;2023-11-18T07:23:40;9.10;;;5.97;;
3767;SDS011;1899;49.966;7.106;2023-11-18T07:26:06;10.53;;;5.90;;
3767;SDS011;1899;49.966;7.106;2023-11-18T07:28:31;13.80;;;7.63;;
3767;SDS011;1899;49.966;7.106;2023-11-18T07:30:56;7.70;;;5.00;;
3767;SDS011;1899;49.966;7.106;2023-11-18T07:33:23;10.40;;;6.70;;
3767;SDS011;1899;49.966;7.106;2023-11-18T07:35:48;11.97;;;7.90;;
3767;SDS011;1899;49.966;7.106;2023-11-18T07:38:14;10.90;;;6.83;;
3767;SDS011;1899;49.966;7.106;2023-11-18T07:40:39;9.47;;;6.10;;
3767;SDS011;1899;49.966;7.106;2023-11-18T07:43:11;11.17;;;7.03;;
3767;SDS011;1899;49.966;7.106;2023-11-18T07:45:36;9.97;;;6.17;;
3767;SDS011;1899;49.966;7.106;2023-11-18T07:48:05;9.10;;;5.57;;
3767;SDS011;1899;49.966;7.106;2023-11-18T07:50:33;10.70;;;5.00;;
3767;SDS011;1899;49.966;7.106;2023-11-18T07:52:58;11.10;;;5.90;;
3767;SDS011;1899;49.966;7.106;2023-11-18T07:55:24;8.53;;;5.50;;
3767;SDS011;1899;49.966;7.106;2023-11-18T07:57:49;9.17;;;5.60;;
3767;SDS011;1899;49.966;7.106;2023-11-18T08:00:15;12.87;;;6.90;;
3767;SDS011;1899;49.966;7.106;2023-11-18T08:02:40;9.40;;;5.80;;
3767;SDS011;1899;49.966;7.106;2023-11-18T08:05:05;18.10;;;7.10;;
3767;SDS011;1899;49.966;7.106;2023-11-18T08:07:40;10.60;;;5.60;;
3767;SDS011;1899;49.966;7.106;2023-11-18T08:10:06;10.63;;;6.07;;
3767;SDS011;1899;49.966;7.106;2023-11-18T08:12:31;10.17;;;5.70;;
3767;SDS011;1899;49.966;7.106;2023-11-18T08:14:57;10.70;;;5.93;;
3767;SDS011;1899;49.966;7.106;2023-11-18T08:17:24;10.77;;;6.20;;
3767;SDS011;1899;49.966;7.106;2023-11-18T08:19:50;10.00;;;6.53;;
3767;SDS011;1899;49.966;7.106;2023-11-18T08:22:16;11.40;;;7.10;;
3767;SDS011;1899;49.966;7.106;2023-11-18T08:24:43;11.13;;;7.17;;
3767;SDS011;1899;49.966;7.106;2023-11-18T08:27:09;10.93;;;6.47;;
3767;SDS011;1899;49.966;7.106;2023-11-18T08:29:34;11.87;;;7.23;;
3767;SDS011;1899;49.966;7.106;2023-11-18T08:32:00;12.63;;;7.10;;
3767;SDS011;1899;49.966;7.106;2023-11-18T08:34:25;10.70;;;6.90;;
3767;SDS011;1899;49.966;7.106;2023-11-18T08:36:51;9.50;;;5.97;;
3767;SDS011;1899;49.966;7.106;2023-11-18T08:39:16;10.20;;;6.90;;
3767;SDS011;1899;49.966;7.106;2023-11-18T08:41:44;8.93;;;6.20;;
3767;SDS011;1899;49.966;7.106;2023-11-18T08:44:10;10.20;;;6.13;;
3767;SDS011;1899;49.966;7.106;2023-11-18T08:46:38;10.40;;;6.53;;
3767;SDS011;1899;49.966;7.106;2023-11-18T08:49:04;12.30;;;8.40;;
3767;SDS011;1899;49.966;7.106;2023-11-18T08:51:35;11.00;;;7.03;;
3767;SDS011;1899;49.966;7.106;2023-11-18T08:54:02;11.50;;;6.53;;
3767;SDS011;1899;49.966;7.106;2023-11-18T08:56:42;12.23;;;7.70;;
3767;SDS011;1899;49.966;7.106;2023-11-18T08:59:07;12.87;;;7.90;;
3767;SDS011;1899;49.966;7.106;2023-11-18T09:01:33;11.70;;;7.07;;
3767;SDS011;1899;49.966;7.106;2023-11-18T09:03:59;11.70;;;7.50;;
3767;SDS011;1899;49.966;7.106;2023-11-18T09:06:26;11.90;;;7.73;;
3767;SDS011;1899;49.966;7.106;2023-11-18T09:08:53;9.20;;;6.70;;
3767;SDS011;1899;49.966;7.106;2023-11-18T09:11:19;11.23;;;7.20;;
3767;SDS011;1899;49.966;7.106;2023-11-18T09:13:47;12.60;;;7.20;;
3767;SDS011;1899;49.966;7.106;2023-11-18T09:16:14;11.77;;;7.37;;
3767;SDS011;1899;49.966;7.106;2023-11-18T09:18:41;10.23;;;7.20;;
3767;SDS011;1899;49.966;7.106;2023-11-18T09:21:08;12.70;;;7.63;;
3767;SDS011;1899;49.966;7.106;2023-11-18T09:23:39;10.97;;;8.20;;
3767;SDS011;1899;49.966;7.106;2023-11-18T09:26:05;10.57;;;7.83;;
3767;SDS011;1899;49.966;7.106;2023-11-18T09:28:32;11.10;;;7.10;;
3767;SDS011;1899;49.966;7.106;2023-11-18T09:31:00;12.03;;;8.60;;
3767;SDS011;1899;49.966;7.106;2023-11-18T09:33:28;19.73;;;9.60;;
3767;SDS011;1899;49.966;7.106;2023-11-18T09:35:57;10.40;;;7.57;;
3767;SDS011;1899;49.966;7.106;2023-11-18T09:38:26;12.50;;;8.73;;
3767;SDS011;1899;49.966;7.106;2023-11-18T09:40:54;13.40;;;9.10;;
3767;SDS011;1899;49.966;7.106;2023-11-18T09:43:20;13.00;;;7.30;;
3767;SDS011;1899;49.966;7.106;2023-11-18T09:45:55;12.40;;;7.57;;
3767;SDS011;1899;49.966;7.106;2023-11-18T09:48:20;12.43;;;8.47;;
3767;SDS011;1899;49.966;7.106;2023-11-18T09:50:50;13.87;;;9.00;;
3767;SDS011;1899;49.966;7.106;2023-11-18T09:53:16;11.97;;;8.27;;
3767;SDS011;1899;49.966;7.106;2023-11-18T09:56:28;10.90;;;8.03;;
3767;SDS011;1899;49.966;7.106;2023-11-18T09:58:40;11.80;;;7.47;;
3767;SDS011;1899;49.966;7.106;2023-11-18T10:01:09;12.30;;;8.20;;
3767;SDS011;1899;49.966;7.106;2023-11-18T10:03:39;12.80;;;8.17;;
3767;SDS011;1899;49.966;7.106;2023-11-18T10:06:07;13.53;;;8.33;;
3767;SDS011;1899;49.966;7.106;2023-11-18T10:08:34;14.10;;;9.90;;
3767;SDS011;1899;49.966;7.106;2023-11-18T10:11:01;17.30;;;9.70;;
3767;SDS011;1899;49.966;7.106;2023-11-18T10:13:34;17.90;;;8.70;;
3767;SDS011;1899;49.966;7.106;2023-11-18T10:16:00;14.60;;;7.87;;
3767;SDS011;1899;49.966;7.106;2023-11-18T10:18:25;12.07;;;8.77;;
3767;SDS011;1899;49.966;7.106;2023-11-18T10:20:53;11.13;;;7.77;;
3767;SDS011;1899;49.966;7.106;2023-11-18T10:23:19;18.43;;;8.07;;
3767;SDS011;1899;49.966;7.106;2023-11-18T10:25:52;12.50;;;8.50;;
3767;SDS011;1899;49.966;7.106;2023-11-18T10:28:27;12.43;;;7.90;;
3767;SDS011;1899;49.966;7.106;2023-11-18T10:30:53;14.13;;;8.20;;
3767;SDS011;1899;49.966;7.106;2023-11-18T10:33:18;11.47;;;8.27;;
3767;SDS011;1899;49.966;7.106;2023-11-18T10:35:50;13.60;;;8.37;;
3767;SDS011;1899;49.966;7.106;2023-11-18T10:38:16;9.77;;;7.23;;
3767;SDS011;1899;49.966;7.106;2023-11-18T10:40:41;11.23;;;8.50;;
3767;SDS011;1899;49.966;7.106;2023-11-18T10:43:08;12.30;;;8.60;;
3767;SDS011;1899;49.966;7.106;2023-11-18T10:45:34;14.10;;;8.37;;
3767;SDS011;1899;49.966;7.106;2023-11-18T10:48:05;11.67;;;7.50;;
3767;SDS011;1899;49.966;7.106;2023-11-18T10:50:31;10.40;;;7.23;;
3767;SDS011;1899;49.966;7.106;2023-11-18T10:52:57;13.63;;;8.83;;
3767;SDS011;1899;49.966;7.106;2023-11-18T10:55:34;11.33;;;7.93;;
3767;SDS011;1899;49.966;7.106;2023-11-18T10:57:59;13.07;;;9.13;;
3767;SDS011;1899;49.966;7.106;2023-11-18T11:00:24;17.30;;;8.90;;
3767;SDS011;1899;49.966;7.106;2023-11-18T11:02:57;12.87;;;8.60;;
3767;SDS011;1899;49.966;7.106;2023-11-18T11:05:29;15.70;;;9.27;;
3767;SDS011;1899;49.966;7.106;2023-11-18T11:07:58;13.50;;;8.60;;
3767;SDS011;1899;49.966;7.106;2023-11-18T11:10:24;12.20;;;8.17;;
3767;SDS011;1899;49.966;7.106;2023-11-18T11:12:53;11.57;;;8.90;;
3767;SDS011;1899;49.966;7.106;2023-11-18T11:15:23;18.37;;;9.63;;
3767;SDS011;1899;49.966;7.106;2023-11-18T11:17:53;12.20;;;8.57;;
3767;SDS011;1899;49.966;7.106;2023-11-18T11:20:27;16.10;;;9.40;;
3767;SDS011;1899;49.966;7.106;2023-11-18T11:25:50;13.50;;;10.17;;
3767;SDS011;1899;49.966;7.106;2023-11-18T11:28:21;14.77;;;9.60;;
3767;SDS011;1899;49.966;7.106;2023-11-18T11:30:58;14.60;;;10.57;;
3767;SDS011;1899;49.966;7.106;2023-11-18T11:33:49;19.70;;;12.43;;
3767;SDS011;1899;49.966;7.106;2023-11-18T11:36:20;15.80;;;10.10;;
3767;SDS011;1899;49.966;7.106;2023-11-18T11:38:49;16.63;;;11.43;;
3767;SDS011;1899;49.966;7.106;2023-11-18T11:41:16;17.27;;;10.57;;
3767;SDS011;1899;49.966;7.106;2023-11-18T11:43:47;12.60;;;8.00;;
3767;SDS011;1899;49.966;7.106;2023-11-18T11:46:13;16.97;;;9.60;;
3767;SDS011;1899;49.966;7.106;2023-11-18T11:48:39;15.10;;;9.47;;
3767;SDS011;1899;49.966;7.106;2023-11-18T11:53:41;15.07;;;9.13;;
3767;SDS011;1899;49.966;7.106;2023-11-18T11:56:10;11.60;;;8.23;;
3767;SDS011;1899;49.966;7.106;2023-11-18T11:58:38;14.17;;;9.20;;
3767;SDS011;1899;49.966;7.106;2023-11-18T12:01:27;17.70;;;10.00;;
3767;SDS011;1899;49.966;7.106;2023-11-18T12:03:57;17.53;;;10.03;;
3767;SDS011;1899;49.966;7.106;2023-11-18T12:06:23;14.60;;;9.33;;
3767;SDS011;1899;49.966;7.106;2023-11-18T12:08:51;14.10;;;8.37;;
3767;SDS011;1899;49.966;7.106;2023-11-18T12:11:17;12.63;;;7.70;;
3767;SDS011;1899;49.966;7.106;2023-11-18T12:13:59;13.93;;;8.17;;
3767;SDS011;1899;49.966;7.106;2023-11-18T12:19:32;16.60;;;8.87;;
3767;SDS011;1899;49.966;7.106;2023-11-18T12:22:01;12.10;;;7.90;;
3767;SDS011;1899;49.966;7.106;2023-11-18T12:24:35;15.43;;;8.47;;
3767;SDS011;1899;49.966;7.106;2023-11-18T12:27:00;10.80;;;7.33;;
3767;SDS011;1899;49.966;7.106;2023-11-18T12:29:31;13.20;;;7.53;;
3767;SDS011;1899;49.966;7.106;2023-11-18T12:31:59;14.03;;;8.00;;
3767;SDS011;1899;49.966;7.106;2023-11-18T12:34:24;11.57;;;7.27;;
3767;SDS011;1899;49.966;7.106;2023-11-18T12:37:06;12.00;;;7.43;;
3767;SDS011;1899;49.966;7.106;2023-11-18T12:47:57;11.53;;;5.83;;
3767;SDS011;1899;49.966;7.106;2023-11-18T12:50:27;9.00;;;4.30;;
3767;SDS011;1899;49.966;7.106;2023-11-18T12:52:53;9.60;;;4.50;;
3767;SDS011;1899;49.966;7.106;2023-11-18T12:55:19;6.80;;;4.37;;
3767;SDS011;1899;49.966;7.106;2023-11-18T12:57:48;12.27;;;3.87;;
3767;SDS011;1899;49.966;7.106;2023-11-18T13:00:16;8.67;;;4.30;;
3767;SDS011;1899;49.966;7.106;2023-11-18T13:02:51;12.23;;;5.10;;
3767;SDS011;1899;49.966;7.106;2023-11-18T13:05:17;11.47;;;4.73;;
3767;SDS011;1899;49.966;7.106;2023-11-18T13:07:42;6.47;;;3.93;;
3767;SDS011;1899;49.966;7.106;2023-11-18T13:10:08;7.37;;;4.70;;
3767;SDS011;1899;49.966;7.106;2023-11-18T13:12:34;11.30;;;4.80;;
3767;SDS011;1899;49.966;7.106;2023-11-18T13:14:59;8.73;;;4.27;;
3767;SDS011;1899;49.966;7.106;2023-11-18T13:17:25;8.13;;;4.30;;
3767;SDS011;1899;49.966;7.106;2023-11-18T13:19:53;9.43;;;5.07;;
3767;SDS011;1899;49.966;7.106;2023-11-18T13:22:19;7.10;;;4.23;;
3767;SDS011;1899;49.966;7.106;2023-11-18T13:24:44;6.00;;;4.00;;
3767;SDS011;1899;49.966;7.106;2023-11-18T13:27:10;10.10;;;5.17;;
3767;SDS011;1899;49.966;7.106;2023-11-18T13:29:38;7.93;;;4.50;;
3767;SDS011;1899;49.966;7.106;2023-11-18T13:32:07;7.10;;;4.77;;
3767;SDS011;1899;49.966;7.106;2023-11-18T13:34:33;9.00;;;4.63;;
3767;SDS011;1899;49.966;7.106;2023-11-18T13:37:01;8.90;;;4.50;;
3767;SDS011;1899;49.966;7.106;2023-11-18T13:39:27;7.60;;;4.57;;
3767;SDS011;1899;49.966;7.106;2023-11-18T13:41:52;9.83;;;4.50;;
3767;SDS011;1899;49.966;7.106;2023-11-18T13:44:51;7.47;;;5.20;;
3767;SDS011;1899;49.966;7.106;2023-11-18T13:47:11;8.20;;;5.10;;
3767;SDS011;1899;49.966;7.106;2023-11-18T13:49:37;8.63;;;4.23;;
3767;SDS011;1899;49.966;7.106;2023-11-18T13:52:05;8.50;;;4.17;;
3767;SDS011;1899;49.966;7.106;2023-11-18T13:54:32;10.73;;;5.20;;
3767;SDS011;1899;49.966;7.106;2023-11-18T13:57:00;7.40;;;4.90;;
3767;SDS011;1899;49.966;7.106;2023-11-18T13:59:25;8.00;;;4.47;;
3767;SDS011;1899;49.966;7.106;2023-11-18T14:01:54;7.53;;;3.73;;
3767;SDS011;1899;49.966;7.106;2023-11-18T14:04:28;8.20;;;4.20;;
3767;SDS011;1899;49.966;7.106;2023-11-18T14:06:57;4.60;;;3.37;;
3767;SDS011;1899;49.966;7.106;2023-11-18T14:09:22;5.70;;;3.70;;
3767;SDS011;1899;49.966;7.106;2023-11-18T14:11:50;6.47;;;3.50;;
3767;SDS011;1899;49.966;7.106;2023-11-18T14:14:16;6.20;;;4.13;;
3767;SDS011;1899;49.966;7.106;2023-11-18T14:16:42;5.80;;;3.53;;
3767;SDS011;1899;49.966;7.106;2023-11-18T14:19:07;6.80;;;4.00;;
3767;SDS011;1899;49.966;7.106;2023-11-18T14:21:33;6.00;;;3.77;;
3767;SDS011;1899;49.966;7.106;2023-11-18T14:23:58;6.20;;;3.70;;
3767;SDS011;1899;49.966;7.106;2023-11-18T14:26:28;5.23;;;3.20;;
3767;SDS011;1899;49.966;7.106;2023-11-18T14:28:54;5.73;;;4.10;;
3767;SDS011;1899;49.966;7.106;2023-11-18T14:31:20;6.33;;;4.10;;
3767;SDS011;1899;49.966;7.106;2023-11-18T14:33:47;5.00;;;3.63;;
3767;SDS011;1899;49.966;7.106;2023-11-18T14:36:13;6.00;;;3.90;;
3767;SDS011;1899;49.966;7.106;2023-11-18T14:38:39;6.27;;;4.07;;
3767;SDS011;1899;49.966;7.106;2023-11-18T14:41:05;6.53;;;3.67;;
3767;SDS011;1899;49.966;7.106;2023-11-18T14:43:30;7.00;;;3.80;;
3767;SDS011;1899;49.966;7.106;2023-11-18T14:45:56;5.30;;;3.77;;
3767;SDS011;1899;49.966;7.106;2023-11-18T14:48:22;7.90;;;3.10;;
3767;SDS011;1899;49.966;7.106;2023-11-18T14:50:48;8.80;;;3.33;;
3767;SDS011;1899;49.966;7.106;2023-11-18T14:53:13;10.03;;;3.60;;
3767;SDS011;1899;49.966;7.106;2023-11-18T14:55:38;3.80;;;2.50;;
3767;SDS011;1899;49.966;7.106;2023-11-18T14:58:04;4.23;;;2.80;;
3767;SDS011;1899;49.966;7.106;2023-11-18T15:00:29;8.40;;;3.30;;
3767;SDS011;1899;49.966;7.106;2023-11-18T15:02:57;6.57;;;2.63;;
3767;SDS011;1899;49.966;7.106;2023-11-18T15:05:22;5.87;;;2.83;;
3767;SDS011;1899;49.966;7.106;2023-11-18T15:07:52;7.20;;;2.93;;
3767;SDS011;1899;49.966;7.106;2023-11-18T15:10:18;6.13;;;2.77;;
3767;SDS011;1899;49.966;7.106;2023-11-18T15:12:45;7.03;;;3.00;;
3767;SDS011;1899;49.966;7.106;2023-11-18T15:15:10;5.50;;;2.30;;
3767;SDS011;1899;49.966;7.106;2023-11-18T15:17:43;4.93;;;2.50;;
3767;SDS011;1899;49.966;7.106;2023-11-18T15:20:09;5.87;;;2.50;;
3767;SDS011;1899;49.966;7.106;2023-11-18T15:22:37;6.00;;;2.10;;
3767;SDS011;1899;49.966;7.106;2023-11-18T15:25:02;4.97;;;2.50;;